Time;durP1;ratioP1;P1;durP2;ratioP2;P2;SDS_P1;SDS_P2;PMS_P1;PMS_P2;Temp;Humidity;BMP_temperature;BMP_pressure;BME280_temperature;BME280_humidity;BME280_pressure;Samples;Min_cycle;Max_cycle;Signal;HPM_P1;HPM_P2
2023/09/28 00:01:31;;;;;;;8.27;4.45;;;18.80;99.90;;;;;;4233822;28;20044;-81
2023/09/28 00:03:31;;;;;;;7.20;4.25;;;18.90;99.90;;;;;;4233791;28;20047;-81
2023/09/28 00:05:32;;;;;;;7.13;4.00;;;18.80;99.90;;;;;;4215417;28;20063;-81
2023/09/28 00:07:33;;;;;;;8.32;4.82;;;19.00;99.90;;;;;;4221113;28;20078;-80
2023/09/28 00:09:34;;;;;;;7.20;4.47;;;19.00;99.90;;;;;;4228886;28;20514;-80
2023/09/28 00:11:35;;;;;;;8.68;5.05;;;18.90;99.90;;;;;;4233678;28;20071;-82
2023/09/28 00:13:36;;;;;;;7.95;4.28;;;18.90;99.90;;;;;;4233769;28;20040;-82
2023/09/28 00:15:37;;;;;;;6.40;4.25;;;19.00;99.90;;;;;;4215477;28;20154;-82
2023/09/28 00:17:40;;;;;;;7.00;4.70;;;18.80;99.90;;;;;;4228869;28;20050;-82
2023/09/28 00:19:40;;;;;;;8.07;4.25;;;18.80;99.90;;;;;;4228702;28;20040;-82
2023/09/28 00:21:41;;;;;;;7.32;4.30;;;18.90;99.90;;;;;;4233318;28;20050;-82
2023/09/28 00:23:42;;;;;;;11.52;5.13;;;18.80;99.90;;;;;;4233418;28;20488;-82
2023/09/28 00:25:44;;;;;;;6.97;4.70;;;19.10;99.90;;;;;;4232072;28;20508;-81
2023/09/28 00:27:47;;;;;;;7.80;4.80;;;19.00;99.90;;;;;;4233295;28;20040;-82
2023/09/28 00:29:47;;;;;;;7.88;4.43;;;18.80;99.90;;;;;;4232422;28;20102;-82
2023/09/28 00:31:48;;;;;;;5.90;4.30;;;18.70;99.90;;;;;;4233541;28;20395;-81
2023/09/28 00:33:49;;;;;;;6.88;4.32;;;18.70;99.90;;;;;;4232116;28;20091;-82
2023/09/28 00:35:50;;;;;;;6.57;4.43;;;18.70;99.90;;;;;;4233716;28;20454;-82
2023/09/28 00:37:51;;;;;;;5.72;4.03;;;18.90;99.90;;;;;;4233294;28;20035;-81
2023/09/28 00:39:55;;;;;;;5.63;4.45;;;18.70;99.90;;;;;;4233474;28;20047;-81
2023/09/28 00:41:55;;;;;;;6.22;4.70;;;18.80;99.90;;;;;;4233376;28;20091;-81
2023/09/28 00:43:56;;;;;;;8.57;5.25;;;18.80;99.90;;;;;;4227124;28;20108;-80
2023/09/28 00:45:59;;;;;;;8.57;4.00;;;18.80;99.90;;;;;;4233091;28;20121;-81
2023/09/28 00:48:02;;;;;;;6.25;4.38;;;18.70;99.90;;;;;;4198403;28;20044;-81
2023/09/28 00:50:03;;;;;;;8.05;4.85;;;18.80;99.90;;;;;;4233152;28;20052;-82
2023/09/28 00:52:07;;;;;;;5.43;4.53;;;18.80;99.90;;;;;;4233138;28;20087;-80
2023/09/28 00:54:11;;;;;;;11.88;4.53;;;18.80;99.90;;;;;;4233149;28;20051;-82
2023/09/28 00:56:13;;;;;;;8.82;4.22;;;18.80;99.90;;;;;;4233557;28;20514;-80
2023/09/28 00:58:14;;;;;;;7.63;5.03;;;18.70;99.90;;;;;;4215695;28;20044;-81
2023/09/28 01:02:22;;;;;;;7.22;5.20;;;18.80;99.90;;;;;;4214333;28;20063;-81
2023/09/28 01:04:23;;;;;;;6.45;5.05;;;18.90;99.90;;;;;;4232577;28;20075;-80
2023/09/28 01:06:24;;;;;;;7.68;4.05;;;18.90;99.90;;;;;;4214589;28;20431;-80
2023/09/28 01:08:25;;;;;;;6.70;5.07;;;18.90;99.90;;;;;;4232689;28;20373;-80
2023/09/28 01:10:29;;;;;;;6.90;4.30;;;18.90;99.90;;;;;;4232760;28;20128;-80
2023/09/28 01:12:31;;;;;;;11.85;4.82;;;18.90;99.90;;;;;;4232664;28;20050;-80
2023/09/28 01:14:33;;;;;;;7.70;4.15;;;18.90;99.90;;;;;;4214499;28;20138;-80
2023/09/28 01:16:34;;;;;;;6.30;4.60;;;18.80;99.90;;;;;;4231778;28;20104;-82
2023/09/28 01:18:34;;;;;;;6.78;4.50;;;19.00;99.90;;;;;;4220923;28;20036;-82
2023/09/28 01:20:37;;;;;;;7.30;4.15;;;18.80;99.90;;;;;;4233076;28;20074;-82
2023/09/28 01:22:38;;;;;;;10.07;4.90;;;18.80;99.90;;;;;;4233191;28;20049;-82
2023/09/28 01:24:39;;;;;;;7.03;4.05;;;18.80;99.90;;;;;;4232328;28;20530;-82
2023/09/28 01:26:39;;;;;;;6.60;4.05;;;18.80;99.90;;;;;;4232652;28;20051;-81
2023/09/28 01:28:40;;;;;;;6.28;4.22;;;18.80;99.90;;;;;;4231049;28;20167;-81
2023/09/28 01:30:41;;;;;;;6.95;4.00;;;18.90;99.90;;;;;;4232213;28;20517;-81
2023/09/28 01:32:42;;;;;;;13.05;4.60;;;18.80;99.90;;;;;;4231956;28;20706;-81
2023/09/28 01:34:43;;;;;;;8.40;4.70;;;18.90;99.90;;;;;;4230768;28;20143;-81
2023/09/28 01:36:44;;;;;;;7.07;4.40;;;18.90;99.90;;;;;;4218928;28;20040;-81
2023/09/28 01:38:51;;;;;;;7.63;4.18;;;18.90;99.90;;;;;;4215635;28;20040;-80
2023/09/28 01:40:52;;;;;;;6.90;3.40;;;19.00;99.90;;;;;;4215294;28;20097;-80
2023/09/28 01:42:53;;;;;;;8.55;3.65;;;18.90;99.90;;;;;;4215321;28;20411;-80
2023/09/28 01:44:54;;;;;;;9.15;3.65;;;18.90;99.90;;;;;;4214860;28;20076;-80
2023/09/28 01:46:54;;;;;;;7.60;4.00;;;19.10;99.90;;;;;;4215338;28;20101;-81
2023/09/28 01:48:55;;;;;;;9.30;3.33;;;19.00;99.90;;;;;;4197327;28;20041;-81
2023/09/28 01:50:56;;;;;;;6.93;3.50;;;18.90;99.90;;;;;;4215665;28;20396;-81
2023/09/28 01:52:57;;;;;;;5.22;3.78;;;19.00;99.90;;;;;;4217935;28;20512;-81
2023/09/28 01:54:58;;;;;;;5.88;3.55;;;19.00;99.90;;;;;;4227013;28;20517;-81
2023/09/28 01:56:59;;;;;;;5.18;3.30;;;19.00;99.90;;;;;;4231733;28;20039;-81
2023/09/28 01:59:00;;;;;;;7.25;3.85;;;18.90;99.90;;;;;;4231965;28;20101;-81
2023/09/28 02:01:00;;;;;;;7.63;4.00;;;19.00;99.90;;;;;;4231556;28;20074;-81
2023/09/28 02:03:03;;;;;;;6.15;3.65;;;19.00;99.90;;;;;;4231514;28;20406;-81
2023/09/28 02:05:04;;;;;;;6.25;3.50;;;19.00;99.90;;;;;;4213308;28;20124;-81
2023/09/28 02:07:06;;;;;;;6.28;3.58;;;19.00;99.90;;;;;;4231737;28;20040;-81
2023/09/28 02:09:07;;;;;;;6.45;3.28;;;19.00;99.90;;;;;;4227201;28;20043;-81
2023/09/28 02:11:09;;;;;;;7.80;3.63;;;19.20;99.90;;;;;;4222331;28;20032;-81
2023/09/28 02:13:10;;;;;;;4.78;3.28;;;19.00;99.90;;;;;;4231190;28;20047;-81
2023/09/28 02:15:14;;;;;;;6.38;3.58;;;18.90;99.90;;;;;;4229724;28;20070;-81
2023/09/28 02:17:15;;;;;;;6.22;3.47;;;18.90;99.90;;;;;;4231395;28;20052;-81
2023/09/28 02:19:16;;;;;;;4.38;3.20;;;18.90;99.90;;;;;;4231597;28;20039;-80
2023/09/28 02:21:17;;;;;;;6.13;4.00;;;18.90;99.90;;;;;;4230967;28;20043;-80
2023/09/28 02:23:18;;;;;;;5.47;3.10;;;18.80;99.90;;;;;;4231640;28;20501;-80
2023/09/28 02:25:23;;;;;;;5.43;3.10;;;18.90;99.90;;;;;;4231603;28;20115;-80
2023/09/28 02:27:24;;;;;;;5.78;3.35;;;19.00;99.90;;;;;;4213267;28;20503;-80
2023/09/28 02:29:25;;;;;;;6.60;3.25;;;18.90;99.90;;;;;;4226562;28;20066;-80
2023/09/28 02:31:27;;;;;;;8.25;3.90;;;18.80;99.90;;;;;;4231613;28;20039;-80
2023/09/28 02:33:29;;;;;;;7.10;3.45;;;18.70;99.90;;;;;;4231439;28;20447;-80
2023/09/28 02:35:30;;;;;;;7.22;3.65;;;18.70;99.90;;;;;;4213079;28;20538;-80
2023/09/28 02:37:33;;;;;;;6.43;3.45;;;18.70;99.90;;;;;;4231191;28;20130;-80
2023/09/28 02:39:36;;;;;;;5.38;3.40;;;19.20;99.90;;;;;;4231230;28;20536;-80
2023/09/28 02:41:36;;;;;;;5.30;3.58;;;18.70;99.90;;;;;;4212885;28;20044;-80
2023/09/28 02:43:37;;;;;;;5.63;3.53;;;18.70;99.90;;;;;;4231288;28;20047;-81
2023/09/28 02:45:38;;;;;;;5.78;3.42;;;18.60;99.90;;;;;;4231409;28;20054;-80
2023/09/28 02:47:43;;;;;;;4.38;3.40;;;18.70;99.90;;;;;;4220319;28;20040;-80
2023/09/28 02:49:44;;;;;;;7.00;3.70;;;18.60;99.90;;;;;;4213940;28;20044;-80
2023/09/28 02:51:45;;;;;;;8.48;4.40;;;18.60;99.90;;;;;;4196625;28;20485;-80
2023/09/28 02:53:46;;;;;;;8.95;4.22;;;18.70;99.90;;;;;;4215211;28;20036;-80
2023/09/28 02:55:47;;;;;;;9.07;4.10;;;18.80;99.90;;;;;;4230716;28;20168;-80
2023/09/28 02:57:49;;;;;;;6.65;3.17;;;18.80;99.90;;;;;;4231184;28;20071;-80
2023/09/28 02:59:50;;;;;;;5.43;3.40;;;19.30;99.90;;;;;;4230863;28;20043;-80
2023/09/28 03:01:52;;;;;;;8.65;3.78;;;18.50;99.90;;;;;;4230989;28;20468;-81
2023/09/28 03:03:53;;;;;;;6.35;4.35;;;18.50;99.90;;;;;;4220866;28;20127;-80
2023/09/28 03:05:58;;;;;;;8.98;3.88;;;18.60;99.90;;;;;;4225683;28;20499;-80
2023/09/28 03:07:58;;;;;;;6.45;3.88;;;18.40;99.90;;;;;;4230623;28;20055;-80
2023/09/28 03:09:59;;;;;;;7.68;4.00;;;18.40;99.90;;;;;;4230722;28;20047;-80
2023/09/28 03:12:00;;;;;;;6.95;4.10;;;18.50;99.90;;;;;;4230615;28;20476;-80
2023/09/28 03:14:05;;;;;;;6.05;3.58;;;18.30;99.90;;;;;;4230579;28;20083;-80
2023/09/28 03:16:07;;;;;;;6.22;4.00;;;18.60;99.90;;;;;;4230915;28;20036;-80
2023/09/28 03:18:07;;;;;;;6.97;3.83;;;18.30;99.90;;;;;;4212650;28;20094;-80
2023/09/28 03:20:12;;;;;;;8.73;3.55;;;18.30;99.90;;;;;;4230308;28;20097;-81
2023/09/28 03:22:13;;;;;;;5.00;3.53;;;18.30;99.90;;;;;;4206404;28;20124;-81
2023/09/28 03:24:14;;;;;;;6.07;3.50;;;18.20;99.90;;;;;;4213858;28;20044;-81
2023/09/28 03:26:15;;;;;;;7.18;4.75;;;18.20;99.90;;;;;;4215914;28;20560;-80
2023/09/28 03:28:16;;;;;;;6.40;4.07;;;18.20;99.90;;;;;;4217276;28;20039;-81
2023/09/28 03:30:18;;;;;;;4.85;3.40;;;18.20;99.90;;;;;;4217109;28;20424;-81
2023/09/28 03:32:19;;;;;;;6.55;3.83;;;18.10;99.90;;;;;;4217092;28;20054;-80
2023/09/28 03:34:20;;;;;;;13.38;4.32;;;18.10;99.90;;;;;;4217130;28;20051;-81
2023/09/28 03:36:24;;;;;;;7.85;4.05;;;18.10;99.90;;;;;;4217407;28;20040;-81
2023/09/28 03:38:25;;;;;;;8.02;3.47;;;18.10;99.90;;;;;;4223630;28;20046;-81
2023/09/28 03:40:33;;;;;;;6.97;3.90;;;18.10;99.90;;;;;;4216064;28;20051;-80
2023/09/28 03:42:33;;;;;;;5.68;3.65;;;18.10;99.90;;;;;;4233994;28;20388;-81
2023/09/28 03:44:34;;;;;;;8.95;3.70;;;18.00;99.90;;;;;;4233416;28;20116;-82
2023/09/28 03:46:35;;;;;;;8.68;4.72;;;18.00;99.90;;;;;;4233782;28;20445;-80
2023/09/28 03:48:36;;;;;;;4.85;3.60;;;18.00;99.90;;;;;;4215870;28;20393;-80
2023/09/28 03:50:36;;;;;;;7.10;4.65;;;18.00;99.90;;;;;;4215459;28;20397;-81
2023/09/28 03:52:38;;;;;;;8.57;4.47;;;17.70;99.90;;;;;;4233897;28;20047;-80
2023/09/28 03:54:39;;;;;;;9.30;4.15;;;18.20;99.90;;;;;;4213814;28;20534;-80
2023/09/28 03:56:40;;;;;;;7.25;4.20;;;18.00;99.90;;;;;;4218897;28;20047;-80
2023/09/28 03:58:41;;;;;;;7.53;3.88;;;18.20;99.90;;;;;;4233375;28;20043;-80
2023/09/28 04:00:42;;;;;;;8.00;4.03;;;17.90;99.90;;;;;;4233299;28;20509;-80
2023/09/28 04:02:45;;;;;;;5.82;3.97;;;17.90;99.90;;;;;;4233442;28;20122;-80
2023/09/28 04:04:46;;;;;;;9.18;4.13;;;17.90;99.90;;;;;;4215712;28;20503;-80
2023/09/28 04:06:48;;;;;;;8.98;4.10;;;17.80;99.90;;;;;;4233774;28;20122;-80
2023/09/28 04:08:50;;;;;;;5.65;3.45;;;17.80;99.90;;;;;;4214868;28;20048;-80
2023/09/28 04:10:50;;;;;;;9.05;4.35;;;17.80;99.90;;;;;;4233661;28;20047;-80
2023/09/28 04:12:54;;;;;;;6.00;3.58;;;17.70;99.90;;;;;;4230456;28;20059;-80
2023/09/28 04:14:55;;;;;;;6.68;4.10;;;17.70;99.90;;;;;;4227816;28;20085;-80
2023/09/28 04:16:56;;;;;;;8.35;3.80;;;17.70;99.90;;;;;;4233576;28;20794;-80
2023/09/28 04:18:56;;;;;;;6.85;3.95;;;17.70;99.90;;;;;;4232975;28;20051;-79
2023/09/28 04:20:57;;;;;;;6.85;3.83;;;17.60;99.90;;;;;;4214665;28;20447;-79
2023/09/28 04:22:58;;;;;;;8.73;3.83;;;17.60;99.90;;;;;;4233294;28;20488;-79
2023/09/28 04:24:59;;;;;;;10.43;4.38;;;17.60;99.90;;;;;;4233340;28;20170;-79
2023/09/28 04:27:00;;;;;;;10.98;5.20;;;17.60;99.90;;;;;;4233507;28;20043;-79
2023/09/28 04:29:01;;;;;;;9.70;5.10;;;17.60;99.90;;;;;;4228140;28;20560;-80
2023/09/28 04:31:01;;;;;;;11.90;4.88;;;18.70;99.90;;;;;;4233095;28;20040;-79
2023/09/28 04:33:02;;;;;;;7.07;4.68;;;17.60;99.90;;;;;;4233430;28;20548;-79
2023/09/28 04:35:10;;;;;;;10.13;3.72;;;17.60;99.90;;;;;;4233475;28;20048;-79
2023/09/28 04:37:12;;;;;;;9.55;4.18;;;17.60;99.90;;;;;;4232056;28;20058;-79
2023/09/28 04:39:13;;;;;;;9.73;4.22;;;17.50;99.90;;;;;;4233273;28;20046;-79
2023/09/28 04:41:13;;;;;;;7.95;3.83;;;17.50;99.90;;;;;;4233141;28;20383;-80
2023/09/28 04:43:14;;;;;;;7.70;5.00;;;17.60;99.90;;;;;;4233103;28;20044;-79
2023/09/28 04:45:15;;;;;;;6.55;3.80;;;17.60;99.90;;;;;;4233491;28;20390;-79
2023/09/28 04:47:16;;;;;;;7.78;3.88;;;17.60;99.90;;;;;;4228063;28;20395;-80
2023/09/28 04:49:17;;;;;;;6.38;4.15;;;17.60;99.90;;;;;;4232976;28;20849;-79
2023/09/28 04:51:19;;;;;;;10.10;4.30;;;17.60;99.90;;;;;;4233436;28;20054;-79
2023/09/28 04:53:29;;;;;;;7.05;4.32;;;17.50;99.90;;;;;;4232110;28;20039;-79
2023/09/28 04:55:30;;;;;;;9.68;4.22;;;17.60;99.90;;;;;;4232838;28;20036;-79
2023/09/28 04:57:32;;;;;;;10.18;4.63;;;17.50;99.90;;;;;;4214959;28;20070;-79
2023/09/28 04:59:39;;;;;;;10.38;4.25;;;17.50;99.90;;;;;;4231902;28;20078;-79
2023/09/28 05:01:40;;;;;;;8.57;5.00;;;17.50;99.90;;;;;;4221862;28;20036;-79
2023/09/28 05:03:41;;;;;;;8.88;4.30;;;17.40;99.90;;;;;;4215500;28;20086;-79
2023/09/28 05:05:42;;;;;;;10.60;4.50;;;17.40;99.90;;;;;;4226091;28;20125;-79
2023/09/28 05:07:43;;;;;;;7.63;4.10;;;17.40;99.90;;;;;;4214619;28;20048;-79
2023/09/28 05:09:44;;;;;;;7.05;3.25;;;17.40;99.90;;;;;;4232704;28;20055;-80
2023/09/28 05:11:45;;;;;;;8.27;4.10;;;17.30;99.90;;;;;;4232328;28;20461;-80
2023/09/28 05:13:47;;;;;;;8.75;4.22;;;17.30;99.90;;;;;;4232547;28;20055;-80
2023/09/28 05:15:48;;;;;;;13.00;5.32;;;17.30;99.90;;;;;;4230752;28;20588;-79
2023/09/28 05:17:48;;;;;;;8.55;4.28;;;17.20;99.90;;;;;;4212416;28;20071;-80
2023/09/28 05:19:49;;;;;;;7.30;4.22;;;17.30;99.90;;;;;;4232362;28;20492;-80
2023/09/28 05:21:50;;;;;;;9.00;4.20;;;17.20;99.90;;;;;;4232284;28;20054;-80
2023/09/28 05:23:51;;;;;;;11.30;4.05;;;16.80;99.90;;;;;;4232405;28;20044;-80
2023/09/28 05:25:51;;;;;;;10.93;3.92;;;17.20;99.90;;;;;;4214187;28;20131;-80
2023/09/28 05:27:53;;;;;;;9.48;3.97;;;;;;;;;;4231897;28;20531;-79
2023/09/28 05:29:54;;;;;;;9.82;3.60;;;17.20;99.90;;;;;;4232041;28;20039;-79
2023/09/28 05:31:54;;;;;;;9.45;3.58;;;17.10;99.90;;;;;;4232275;28;20044;-80
2023/09/28 05:33:55;;;;;;;9.02;3.50;;;17.10;99.90;;;;;;4230619;28;20035;-80
2023/09/28 05:35:56;;;;;;;8.07;3.97;;;17.00;99.90;;;;;;4226614;28;20453;-79
2023/09/28 05:37:57;;;;;;;9.93;3.20;;;17.10;99.90;;;;;;4232116;28;20404;-79
2023/09/28 05:40:00;;;;;;;10.70;3.28;;;17.10;99.90;;;;;;4230841;28;20044;-80
2023/09/28 05:42:01;;;;;;;8.77;2.97;;;17.10;99.90;;;;;;4232016;28;20044;-80
2023/09/28 05:44:02;;;;;;;7.57;2.78;;;17.10;99.90;;;;;;4232022;28;20050;-80
2023/09/28 05:46:03;;;;;;;8.30;3.03;;;17.00;99.90;;;;;;4232731;28;20043;-80
2023/09/28 05:48:05;;;;;;;10.35;2.78;;;17.10;99.90;;;;;;4233414;28;20479;-79
2023/09/28 05:50:07;;;;;;;10.93;3.38;;;17.00;99.90;;;;;;4215554;28;20138;-79
2023/09/28 05:52:07;;;;;;;18.58;3.15;;;17.00;99.90;;;;;;4231960;28;20377;-79
2023/09/28 05:54:08;;;;;;;7.97;3.22;;;16.90;99.90;;;;;;4227390;28;20122;-81
2023/09/28 05:56:09;;;;;;;13.07;2.70;;;16.90;99.90;;;;;;4213530;28;20059;-81
2023/09/28 05:58:10;;;;;;;12.55;3.25;;;16.90;99.90;;;;;;4231557;28;20349;-81
2023/09/28 06:00:11;;;;;;;17.33;3.72;;;16.90;99.90;;;;;;4232125;28;20538;-81
2023/09/28 06:02:12;;;;;;;16.95;3.05;;;17.00;99.90;;;;;;4232093;28;20541;-80
2023/09/28 06:04:13;;;;;;;16.30;3.35;;;17.00;99.90;;;;;;4231701;28;20055;-80
2023/09/28 06:06:16;;;;;;;16.83;2.90;;;17.00;99.90;;;;;;4231361;28;20035;-80
2023/09/28 06:08:18;;;;;;;14.18;2.72;;;17.00;99.90;;;;;;4213201;28;20040;-80
2023/09/28 06:10:19;;;;;;;17.70;4.00;;;17.00;99.90;;;;;;4231823;28;20049;-80
2023/09/28 06:12:21;;;;;;;15.40;3.17;;;17.00;99.90;;;;;;4224817;28;20075;-81
2023/09/28 06:14:21;;;;;;;10.52;2.28;;;17.00;99.90;;;;;;4231448;28;20484;-80
2023/09/28 06:16:25;;;;;;;10.68;2.88;;;17.00;99.90;;;;;;4231671;28;20047;-80
2023/09/28 06:18:26;;;;;;;18.25;2.80;;;17.00;99.90;;;;;;4231402;28;20059;-81
2023/09/28 06:20:26;;;;;;;18.02;2.92;;;17.10;99.90;;;;;;4240872;28;20047;-80
2023/09/28 06:22:28;;;;;;;18.45;3.22;;;17.00;99.90;;;;;;4235692;28;20414;-80
2023/09/28 06:24:28;;;;;;;33.95;4.50;;;17.00;99.90;;;;;;4229832;28;20518;-81
2023/09/28 06:26:29;;;;;;;18.20;3.10;;;17.00;99.90;;;;;;4228266;28;20040;-80
2023/09/28 06:28:30;;;;;;;15.20;4.32;;;17.10;99.90;;;;;;4208053;28;20044;-81
2023/09/28 06:30:31;;;;;;;10.77;3.20;;;17.10;99.90;;;;;;4231181;28;20039;-81
2023/09/28 06:32:31;;;;;;;7.75;3.45;;;17.10;99.90;;;;;;4232109;28;20040;-80
2023/09/28 06:34:32;;;;;;;9.82;3.45;;;17.10;99.90;;;;;;4231222;28;20043;-81
2023/09/28 06:36:33;;;;;;;14.02;4.10;;;17.00;99.90;;;;;;4231476;28;20397;-81
2023/09/28 06:38:34;;;;;;;11.70;4.28;;;17.00;99.90;;;;;;4229418;28;20040;-81
2023/09/28 06:40:34;;;;;;;7.10;3.80;;;17.10;99.90;;;;;;4226455;28;20104;-81
2023/09/28 06:42:35;;;;;;;16.40;4.88;;;17.00;99.90;;;;;;4230619;28;20066;-81
2023/09/28 06:44:36;;;;;;;10.10;3.80;;;17.00;99.90;;;;;;4230250;28;20424;-80
2023/09/28 06:46:37;;;;;;;15.18;3.25;;;17.10;99.90;;;;;;4230908;28;20051;-80
2023/09/28 06:48:37;;;;;;;12.38;3.35;;;16.50;99.90;;;;;;4212718;28;20052;-81
2023/09/28 06:50:39;;;;;;;14.38;4.60;;;17.10;99.90;;;;;;4212339;28;20504;-81
2023/09/28 06:52:40;;;;;;;14.02;2.83;;;17.00;99.90;;;;;;4213442;28;20119;-82
2023/09/28 06:54:42;;;;;;;14.15;3.58;;;17.10;99.90;;;;;;4231385;28;20089;-81
2023/09/28 06:56:42;;;;;;;15.40;2.90;;;17.10;99.90;;;;;;4213796;28;20051;-81
2023/09/28 06:58:44;;;;;;;23.38;4.20;;;17.10;99.90;;;;;;4230882;28;20035;-80
2023/09/28 07:00:45;;;;;;;16.70;4.10;;;17.10;99.90;;;;;;4230267;28;20442;-81
2023/09/28 07:02:49;;;;;;;27.90;5.15;;;17.10;99.90;;;;;;4212525;28;20063;-81
2023/09/28 07:04:50;;;;;;;17.00;3.25;;;17.20;99.90;;;;;;4217444;28;20054;-81
2023/09/28 07:06:51;;;;;;;22.83;4.05;;;17.20;99.90;;;;;;4229183;28;20475;-81
2023/09/28 07:08:52;;;;;;;18.55;2.90;;;18.30;99.90;;;;;;4220805;28;20048;-80
2023/09/28 07:10:53;;;;;;;16.48;2.10;;;17.30;99.90;;;;;;4229232;28;20483;-81
2023/09/28 07:12:54;;;;;;;17.92;3.97;;;17.30;99.90;;;;;;4230101;28;20039;-81
2023/09/28 07:14:55;;;;;;;11.13;2.17;;;17.30;99.90;;;;;;4231049;28;20476;-81
2023/09/28 07:16:56;;;;;;;19.55;3.55;;;17.30;99.90;;;;;;4213890;28;20044;-81
2023/09/28 07:18:57;;;;;;;13.35;2.85;;;17.50;99.90;;;;;;4230869;28;20398;-81
2023/09/28 07:20:58;;;;;;;17.83;2.85;;;17.50;99.90;;;;;;4240715;28;20104;-82
2023/09/28 07:22:58;;;;;;;19.23;2.45;;;17.80;99.90;;;;;;4214243;28;20048;-81
2023/09/28 07:25:00;;;;;;;20.15;4.03;;;17.60;99.90;;;;;;4231930;28;20426;-82
2023/09/28 07:27:01;;;;;;;18.95;3.33;;;18.10;99.90;;;;;;4230951;28;20119;-82
2023/09/28 07:29:02;;;;;;;17.13;2.88;;;17.70;99.90;;;;;;4230832;28;20392;-82
2023/09/28 07:31:03;;;;;;;18.48;4.07;;;16.60;99.90;;;;;;4226431;28;20435;-82
2023/09/28 07:33:04;;;;;;;17.73;2.78;;;17.80;99.90;;;;;;4230498;28;20118;-82
2023/09/28 07:35:05;;;;;;;18.38;3.15;;;17.90;99.90;;;;;;4233785;28;20051;-81
2023/09/28 07:37:07;;;;;;;20.90;3.22;;;;;;;;;;4244096;28;20094;-81
2023/09/28 07:39:08;;;;;;;17.50;2.70;;;;;;;;;;4238187;28;20050;-81
2023/09/28 07:41:10;;;;;;;17.95;3.15;;;;;;;;;;4230918;28;20472;-81
2023/09/28 07:43:10;;;;;;;16.98;2.80;;;18.10;99.90;;;;;;4230776;28;20439;-82
2023/09/28 07:45:13;;;;;;;18.15;2.20;;;18.40;99.90;;;;;;4231031;28;20116;-81
2023/09/28 07:47:14;;;;;;;19.88;2.75;;;18.40;99.90;;;;;;4230553;28;20479;-81
2023/09/28 07:49:14;;;;;;;15.68;2.45;;;18.20;99.90;;;;;;4230184;28;20105;-82
2023/09/28 07:51:15;;;;;;;25.50;3.75;;;18.70;99.90;;;;;;4230395;28;20105;-82
2023/09/28 07:53:16;;;;;;;23.30;3.47;;;19.30;99.90;;;;;;4230650;28;20101;-82
2023/09/28 07:55:17;;;;;;;20.88;4.38;;;19.90;99.90;;;;;;4230766;28;20043;-81
2023/09/28 07:57:17;;;;;;;22.00;3.00;;;19.90;99.90;;;;;;4230597;28;20126;-82
2023/09/28 07:59:18;;;;;;;12.95;2.38;;;19.80;99.90;;;;;;4230487;28;20096;-82
2023/09/28 08:01:20;;;;;;;18.23;3.55;;;19.60;99.90;;;;;;4212403;28;20048;-82
2023/09/28 08:03:21;;;;;;;17.70;2.67;;;19.50;99.90;;;;;;4230945;28;20040;-82
2023/09/28 08:05:22;;;;;;;19.08;2.33;;;19.40;99.90;;;;;;4230723;28;20047;-82
2023/09/28 08:07:24;;;;;;;27.77;3.75;;;19.30;99.90;;;;;;4230487;28;20046;-83
2023/09/28 08:09:25;;;;;;;25.00;3.75;;;19.40;99.90;;;;;;4228966;28;20048;-83
2023/09/28 08:11:26;;;;;;;19.00;2.78;;;19.40;99.90;;;;;;4211973;28;20396;-83
2023/09/28 08:13:27;;;;;;;19.85;2.95;;;19.40;99.90;;;;;;4242845;27;20039;-83
2023/09/28 08:15:28;;;;;;;18.38;3.15;;;20.20;99.90;;;;;;4233739;28;20040;-83
2023/09/28 08:17:29;;;;;;;12.10;2.13;;;19.20;99.90;;;;;;4215403;28;20056;-82
2023/09/28 08:19:29;;;;;;;12.82;2.10;;;19.10;99.90;;;;;;4233602;28;20073;-83
2023/09/28 08:21:30;;;;;;;13.27;2.67;;;19.10;99.90;;;;;;4232987;28;20511;-83
2023/09/28 08:23:32;;;;;;;18.75;2.80;;;19.00;99.90;;;;;;4233586;28;20079;-83
2023/09/28 08:25:34;;;;;;;17.67;3.05;;;19.00;99.90;;;;;;4212954;28;20089;-83
2023/09/28 08:27:35;;;;;;;17.80;2.78;;;19.10;99.90;;;;;;4231681;28;20047;-83
2023/09/28 08:29:37;;;;;;;15.65;2.70;;;19.20;99.90;;;;;;4214209;28;20403;-83
2023/09/28 08:31:37;;;;;;;11.63;3.25;;;19.30;99.90;;;;;;4228126;28;20039;-83
2023/09/28 08:33:38;;;;;;;17.50;3.63;;;19.40;99.90;;;;;;4216413;28;20039;-83
2023/09/28 08:35:39;;;;;;;7.72;1.90;;;20.40;99.90;;;;;;4212730;28;20043;-84
2023/09/28 08:37:40;;;;;;;16.38;2.60;;;20.10;99.90;;;;;;4212189;28;20622;-83
2023/09/28 08:39:41;;;;;;;17.30;2.90;;;19.90;99.90;;;;;;4233092;28;20035;-83
2023/09/28 08:41:43;;;;;;;17.98;3.20;;;20.00;99.90;;;;;;4232966;28;20050;-82
2023/09/28 08:43:53;;;;;;;20.38;3.67;;;20.10;99.90;;;;;;4232592;28;20113;-83
2023/09/28 08:45:57;;;;;;;20.55;2.97;;;18.80;99.90;;;;;;4232632;28;20488;-83
2023/09/28 08:48:02;;;;;;;19.83;3.17;;;20.00;99.90;;;;;;4231875;28;20048;-83
2023/09/28 08:50:03;;;;;;;16.00;2.55;;;20.00;99.90;;;;;;4232877;28;20087;-83
2023/09/28 08:52:04;;;;;;;10.13;2.58;;;20.10;99.90;;;;;;4232504;28;20077;-83
2023/09/28 08:54:06;;;;;;;19.27;2.80;;;20.10;99.90;;;;;;4215365;28;20046;-83
2023/09/28 08:56:08;;;;;;;14.45;2.15;;;20.00;99.90;;;;;;4215292;28;20047;-83
2023/09/28 08:58:11;;;;;;;13.40;2.75;;;20.10;99.90;;;;;;4233145;28;20035;-84
2023/09/28 09:00:14;;;;;;;13.13;2.00;;;20.40;99.90;;;;;;4232663;28;20111;-83
2023/09/28 09:02:16;;;;;;;19.45;2.58;;;20.00;99.90;;;;;;4216803;28;20043;-83
2023/09/28 09:04:17;;;;;;;24.92;3.17;;;20.20;99.90;;;;;;4239473;27;20073;-84
2023/09/28 09:06:20;;;;;;;11.20;2.63;;;19.70;99.90;;;;;;4214403;28;20526;-83
2023/09/28 09:08:22;;;;;;;14.80;2.92;;;20.20;99.90;;;;;;4232690;28;20735;-84
2023/09/28 09:10:27;;;;;;;9.88;2.80;;;19.90;99.90;;;;;;4232338;28;20061;-84
2023/09/28 09:12:32;;;;;;;15.60;2.60;;;19.80;99.90;;;;;;4232188;28;20050;-83
2023/09/28 09:14:33;;;;;;;14.68;2.83;;;19.80;99.90;;;;;;4232387;28;20085;-83
2023/09/28 09:16:33;;;;;;;8.70;1.80;;;19.80;99.90;;;;;;4232958;28;20044;-83
2023/09/28 09:18:38;;;;;;;13.40;2.85;;;20.00;99.90;;;;;;4230448;27;20056;-84
2023/09/28 09:20:38;;;;;;;11.45;2.33;;;18.50;99.90;;;;;;4231834;27;20047;-84
2023/09/28 09:22:39;;;;;;;17.45;2.95;;;19.80;99.90;;;;;;4230947;28;20047;-84
2023/09/28 09:24:53;;;;;;;18.30;3.20;;;19.70;99.90;;;;;;4232244;28;20116;-84
2023/09/28 09:26:56;;;;;;;15.82;3.03;;;20.80;99.90;;;;;;4230929;28;20047;-84
2023/09/28 09:29:00;;;;;;;13.98;2.65;;;19.70;99.90;;;;;;4232152;28;20535;-84
2023/09/28 09:31:02;;;;;;;14.30;2.20;;;19.80;99.90;;;;;;4226236;28;20036;-83
2023/09/28 09:33:09;;;;;;;10.98;2.13;;;19.20;99.90;;;;;;4207265;28;20063;-84
2023/09/28 09:35:11;;;;;;;19.40;3.08;;;19.70;99.90;;;;;;4232289;28;20075;-84
2023/09/28 09:37:12;;;;;;;16.98;2.58;;;19.60;99.90;;;;;;4213992;28;20040;-84
2023/09/28 09:39:29;;;;;;;18.35;2.92;;;19.60;99.90;;;;;;4232059;28;20544;-84
2023/09/28 09:41:31;;;;;;;15.60;2.40;;;19.50;99.90;;;;;;4213961;28;20052;-84
2023/09/28 09:43:34;;;;;;;17.13;2.85;;;19.60;99.90;;;;;;4232318;28;20052;-83
2023/09/28 09:45:38;;;;;;;17.15;2.50;;;19.50;99.90;;;;;;4232242;28;20502;-84
2023/09/28 09:47:58;;;;;;;16.98;2.05;;;19.60;99.90;;;;;;4213289;28;20052;-84
2023/09/28 09:50:00;;;;;;;19.83;3.58;;;19.60;99.90;;;;;;4230058;28;20499;-84
2023/09/28 09:52:02;;;;;;;17.83;2.20;;;19.60;99.90;;;;;;4235205;27;20031;-83
2023/09/28 09:54:04;;;;;;;12.80;2.47;;;19.70;99.90;;;;;;4213600;28;20527;-83
2023/09/28 09:56:05;;;;;;;13.50;2.03;;;19.70;99.90;;;;;;4213903;28;20056;-83
2023/09/28 09:58:09;;;;;;;15.95;3.08;;;19.80;99.90;;;;;;4221430;28;20035;-83
2023/09/28 10:00:15;;;;;;;15.90;2.15;;;19.80;99.90;;;;;;4230615;28;20120;-83
2023/09/28 10:02:25;;;;;;;22.45;3.83;;;19.80;99.90;;;;;;4214394;28;20148;-83
2023/09/28 10:04:26;;;;;;;21.63;4.95;;;19.80;99.90;;;;;;4213463;28;20067;-84
2023/09/28 10:06:28;;;;;;;16.30;2.30;;;19.40;99.90;;;;;;4231351;28;20039;-82
2023/09/28 10:08:32;;;;;;;19.98;2.92;;;19.70;99.90;;;;;;4231587;28;20094;-83
2023/09/28 10:10:34;;;;;;;17.63;3.88;;;19.60;99.90;;;;;;4230264;28;20446;-84
2023/09/28 10:12:36;;;;;;;16.20;4.32;;;19.60;99.90;;;;;;4195984;28;20044;-83
2023/09/28 10:14:38;;;;;;;14.18;2.67;;;19.50;99.90;;;;;;4214363;28;20048;-83
2023/09/28 10:16:41;;;;;;;19.55;4.60;;;19.60;99.90;;;;;;4231439;28;20039;-83
2023/09/28 10:18:45;;;;;;;25.02;4.20;;;20.60;99.90;;;;;;4213308;28;20044;-84
2023/09/28 10:20:46;;;;;;;16.95;4.53;;;19.60;99.90;;;;;;4232211;28;20036;-83
2023/09/28 10:22:50;;;;;;;20.20;4.00;;;19.70;99.90;;;;;;4223371;28;20074;-83
2023/09/28 10:24:51;;;;;;;24.63;3.55;;;20.80;99.90;;;;;;4231217;28;20073;-83
2023/09/28 10:26:52;;;;;;;16.25;3.03;;;20.00;99.90;;;;;;4195872;28;20052;-84
2023/09/28 10:29:07;;;;;;;18.60;3.50;;;20.10;99.90;;;;;;4195942;28;20040;-84
2023/09/28 10:31:13;;;;;;;22.15;4.15;;;20.10;99.90;;;;;;4230938;28;20048;-84
2023/09/28 10:33:16;;;;;;;18.45;4.22;;;20.10;99.90;;;;;;4231193;28;20034;-84